sensor_id;sensor_type;location;lat;lon;timestamp;pressure;altitude;pressure_sealevel;temperature;humidity
77212;BME280;66206;0.000;0.000;2023-05-18T00:00:56;98595.64;;;22.84;22.63
77212;BME280;66206;0.000;0.000;2023-05-18T00:03:23;98592.82;;;22.80;22.48
77212;BME280;66206;0.000;0.000;2023-05-18T00:05:49;98591.27;;;22.72;22.34
77212;BME280;66206;0.000;0.000;2023-05-18T00:08:16;98588.42;;;22.68;22.20
77212;BME280;66206;0.000;0.000;2023-05-18T00:10:43;98582.44;;;22.36;22.26
77212;BME280;66206;0.000;0.000;2023-05-18T00:13:09;98581.11;;;22.49;22.31
77212;BME280;66206;0.000;0.000;2023-05-18T00:15:36;98582.33;;;22.37;22.29
77212;BME280;66206;0.000;0.000;2023-05-18T00:18:03;98580.21;;;22.33;22.21
77212;BME280;66206;0.000;0.000;2023-05-18T00:20:30;98580.20;;;22.25;22.24
77212;BME280;66206;0.000;0.000;2023-05-18T00:22:56;98578.48;;;22.31;22.16
77212;BME280;66206;0.000;0.000;2023-05-18T00:25:23;98577.67;;;22.37;22.02
77212;BME280;66206;0.000;0.000;2023-05-18T00:27:50;98576.68;;;22.38;22.04
77212;BME280;66206;0.000;0.000;2023-05-18T00:30:16;98578.06;;;22.35;21.95
77212;BME280;66206;0.000;0.000;2023-05-18T00:32:43;98577.32;;;22.25;21.92
77212;BME280;66206;0.000;0.000;2023-05-18T00:35:10;98576.88;;;22.36;21.89
77212;BME280;66206;0.000;0.000;2023-05-18T00:37:37;98581.48;;;22.20;21.98
77212;BME280;66206;0.000;0.000;2023-05-18T00:40:04;98581.53;;;22.16;21.89
77212;BME280;66206;0.000;0.000;2023-05-18T00:42:31;98585.64;;;22.21;21.86
77212;BME280;66206;0.000;0.000;2023-05-18T00:44:57;98585.22;;;22.03;21.94
77212;BME280;66206;0.000;0.000;2023-05-18T00:47:24;98585.81;;;22.00;21.93
77212;BME280;66206;0.000;0.000;2023-05-18T00:49:51;98586.18;;;22.16;21.88
77212;BME280;66206;0.000;0.000;2023-05-18T00:52:18;98587.08;;;22.02;21.94
77212;BME280;66206;0.000;0.000;2023-05-18T00:54:44;98586.45;;;22.09;21.86
77212;BME280;66206;0.000;0.000;2023-05-18T00:57:11;98585.89;;;21.98;21.90
77212;BME280;66206;0.000;0.000;2023-05-18T00:59:38;98588.27;;;21.91;21.91
77212;BME280;66206;0.000;0.000;2023-05-18T01:02:05;98588.02;;;22.02;21.96
77212;BME280;66206;0.000;0.000;2023-05-18T01:04:32;98587.23;;;21.97;21.88
77212;BME280;66206;0.000;0.000;2023-05-18T01:06:58;98588.23;;;21.95;21.82
77212;BME280;66206;0.000;0.000;2023-05-18T01:09:25;98584.65;;;21.82;21.95
77212;BME280;66206;0.000;0.000;2023-05-18T01:11:55;98585.24;;;22.02;21.79
77212;BME280;66206;0.000;0.000;2023-05-18T01:14:18;98583.09;;;21.97;21.86
77212;BME280;66206;0.000;0.000;2023-05-18T01:16:44;98581.25;;;22.05;21.78
77212;BME280;66206;0.000;0.000;2023-05-18T01:19:13;98581.06;;;21.83;21.84
77212;BME280;66206;0.000;0.000;2023-05-18T01:21:37;98582.89;;;21.97;21.74
77212;BME280;66206;0.000;0.000;2023-05-18T01:24:08;98581.53;;;21.80;21.88
77212;BME280;66206;0.000;0.000;2023-05-18T01:26:31;98579.67;;;21.82;21.85
77212;BME280;66206;0.000;0.000;2023-05-18T01:29:00;98582.53;;;21.82;21.78
77212;BME280;66206;0.000;0.000;2023-05-18T01:31:28;98581.57;;;21.82;21.78
77212;BME280;66206;0.000;0.000;2023-05-18T01:33:55;98578.82;;;21.89;21.81
77212;BME280;66206;0.000;0.000;2023-05-18T01:36:22;98577.21;;;21.78;21.86
77212;BME280;66206;0.000;0.000;2023-05-18T01:38:48;98574.03;;;21.82;21.75
77212;BME280;66206;0.000;0.000;2023-05-18T01:41:17;98575.91;;;21.78;21.89
77212;BME280;66206;0.000;0.000;2023-05-18T01:43:47;98577.05;;;21.77;21.89
77212;BME280;66206;0.000;0.000;2023-05-18T01:46:17;98576.58;;;21.78;21.81
77212;BME280;66206;0.000;0.000;2023-05-18T01:48:43;98576.43;;;21.80;21.74
77212;BME280;66206;0.000;0.000;2023-05-18T01:51:08;98573.90;;;21.86;21.83
77212;BME280;66206;0.000;0.000;2023-05-18T01:53:38;98566.75;;;21.72;21.81
77212;BME280;66206;0.000;0.000;2023-05-18T01:56:02;98567.57;;;21.68;21.92
77212;BME280;66206;0.000;0.000;2023-05-18T01:58:32;98564.93;;;21.99;21.71
77212;BME280;66206;0.000;0.000;2023-05-18T02:00:59;98565.33;;;21.98;21.71
77212;BME280;66206;0.000;0.000;2023-05-18T02:03:26;98563.48;;;21.68;21.85
77212;BME280;66206;0.000;0.000;2023-05-18T02:05:53;98557.84;;;21.80;21.81
77212;BME280;66206;0.000;0.000;2023-05-18T02:08:19;98559.14;;;21.73;21.82
77212;BME280;66206;0.000;0.000;2023-05-18T02:10:46;98554.38;;;21.76;21.83
77212;BME280;66206;0.000;0.000;2023-05-18T02:13:13;98554.57;;;21.57;21.84
77212;BME280;66206;0.000;0.000;2023-05-18T02:15:40;98553.05;;;21.75;21.79
77212;BME280;66206;0.000;0.000;2023-05-18T02:18:06;98551.72;;;21.68;21.80
77212;BME280;66206;0.000;0.000;2023-05-18T02:20:33;98552.80;;;21.76;21.76
77212;BME280;66206;0.000;0.000;2023-05-18T02:23:00;98554.30;;;21.83;21.82
77212;BME280;66206;0.000;0.000;2023-05-18T02:25:27;98554.55;;;21.62;21.82
77212;BME280;66206;0.000;0.000;2023-05-18T02:27:53;98554.09;;;21.72;21.80
77212;BME280;66206;0.000;0.000;2023-05-18T02:30:20;98554.37;;;21.76;21.82
77212;BME280;66206;0.000;0.000;2023-05-18T02:32:47;98552.93;;;21.60;21.88
77212;BME280;66206;0.000;0.000;2023-05-18T02:35:14;98553.58;;;21.57;21.88
77212;BME280;66206;0.000;0.000;2023-05-18T02:37:41;98551.58;;;21.65;21.83
77212;BME280;66206;0.000;0.000;2023-05-18T02:40:08;98551.65;;;21.56;21.89
77212;BME280;66206;0.000;0.000;2023-05-18T02:42:35;98554.03;;;21.51;21.82
77212;BME280;66206;0.000;0.000;2023-05-18T02:45:02;98553.46;;;21.58;21.78
77212;BME280;66206;0.000;0.000;2023-05-18T02:47:29;98551.68;;;21.68;21.74
77212;BME280;66206;0.000;0.000;2023-05-18T02:49:56;98549.42;;;21.57;21.85
77212;BME280;66206;0.000;0.000;2023-05-18T02:52:22;98551.32;;;21.53;21.87
77212;BME280;66206;0.000;0.000;2023-05-18T02:54:49;98553.35;;;21.52;21.82
77212;BME280;66206;0.000;0.000;2023-05-18T02:57:16;98554.08;;;21.59;21.80
77212;BME280;66206;0.000;0.000;2023-05-18T02:59:43;98554.11;;;21.61;21.83
77212;BME280;66206;0.000;0.000;2023-05-18T03:02:09;98554.35;;;21.57;21.82
77212;BME280;66206;0.000;0.000;2023-05-18T03:04:36;98555.72;;;21.46;21.82
77212;BME280;66206;0.000;0.000;2023-05-18T03:07:03;98558.85;;;21.63;21.82
77212;BME280;66206;0.000;0.000;2023-05-18T03:09:30;98556.52;;;21.63;21.77
77212;BME280;66206;0.000;0.000;2023-05-18T03:11:56;98553.39;;;21.66;21.81
77212;BME280;66206;0.000;0.000;2023-05-18T03:14:23;98554.11;;;21.55;21.88
77212;BME280;66206;0.000;0.000;2023-05-18T03:16:50;98553.55;;;21.56;21.81
77212;BME280;66206;0.000;0.000;2023-05-18T03:19:17;98554.79;;;21.54;21.80
77212;BME280;66206;0.000;0.000;2023-05-18T03:21:44;98555.00;;;21.69;21.79
77212;BME280;66206;0.000;0.000;2023-05-18T03:24:10;98555.59;;;21.58;21.74
77212;BME280;66206;0.000;0.000;2023-05-18T03:26:37;98552.96;;;21.42;21.80
77212;BME280;66206;0.000;0.000;2023-05-18T03:29:04;98557.08;;;21.35;21.92
77212;BME280;66206;0.000;0.000;2023-05-18T03:31:30;98556.98;;;21.46;21.86
77212;BME280;66206;0.000;0.000;2023-05-18T03:33:57;98555.02;;;21.57;21.79
77212;BME280;66206;0.000;0.000;2023-05-18T03:36:24;98555.63;;;21.53;21.92
77212;BME280;66206;0.000;0.000;2023-05-18T03:38:51;98555.87;;;21.45;21.92
77212;BME280;66206;0.000;0.000;2023-05-18T03:41:17;98558.48;;;21.48;21.83
77212;BME280;66206;0.000;0.000;2023-05-18T03:43:44;98559.20;;;21.50;21.88
77212;BME280;66206;0.000;0.000;2023-05-18T03:46:11;98559.58;;;21.55;21.78
77212;BME280;66206;0.000;0.000;2023-05-18T03:48:38;98559.43;;;21.58;21.86
77212;BME280;66206;0.000;0.000;2023-05-18T03:51:04;98558.84;;;21.58;21.64
77212;BME280;66206;0.000;0.000;2023-05-18T03:53:31;98557.51;;;21.49;21.80
77212;BME280;66206;0.000;0.000;2023-05-18T03:55:58;98560.85;;;21.57;21.77
77212;BME280;66206;0.000;0.000;2023-05-18T03:58:25;98562.30;;;21.50;21.80
77212;BME280;66206;0.000;0.000;2023-05-18T04:00:51;98562.83;;;21.52;21.74
77212;BME280;66206;0.000;0.000;2023-05-18T04:03:18;98562.20;;;21.51;21.73
77212;BME280;66206;0.000;0.000;2023-05-18T04:05:45;98564.55;;;21.54;21.79
77212;BME280;66206;0.000;0.000;2023-05-18T04:08:12;98566.31;;;21.64;21.68
77212;BME280;66206;0.000;0.000;2023-05-18T04:10:38;98566.15;;;21.51;21.82
77212;BME280;66206;0.000;0.000;2023-05-18T04:13:06;98567.20;;;21.45;21.87
77212;BME280;66206;0.000;0.000;2023-05-18T04:15:33;98571.38;;;21.69;21.71
77212;BME280;66206;0.000;0.000;2023-05-18T04:18:00;98572.35;;;21.50;21.81
77212;BME280;66206;0.000;0.000;2023-05-18T04:20:27;98578.79;;;21.55;21.70
77212;BME280;66206;0.000;0.000;2023-05-18T04:22:54;98581.02;;;21.41;21.81
77212;BME280;66206;0.000;0.000;2023-05-18T04:25:21;98584.85;;;21.62;21.73
77212;BME280;66206;0.000;0.000;2023-05-18T04:27:47;98584.04;;;21.52;21.78
77212;BME280;66206;0.000;0.000;2023-05-18T04:30:14;98584.37;;;21.56;21.81
77212;BME280;66206;0.000;0.000;2023-05-18T04:32:41;98585.38;;;21.47;21.78
77212;BME280;66206;0.000;0.000;2023-05-18T04:35:08;98590.14;;;21.47;21.73
77212;BME280;66206;0.000;0.000;2023-05-18T04:37:35;98591.92;;;21.38;21.83
77212;BME280;66206;0.000;0.000;2023-05-18T04:40:02;98591.76;;;21.49;21.75
77212;BME280;66206;0.000;0.000;2023-05-18T04:42:29;98593.92;;;21.42;21.88
77212;BME280;66206;0.000;0.000;2023-05-18T04:44:56;98593.61;;;21.36;21.85
77212;BME280;66206;0.000;0.000;2023-05-18T04:47:23;98597.54;;;21.38;21.82
77212;BME280;66206;0.000;0.000;2023-05-18T04:49:49;98599.08;;;21.38;21.86
77212;BME280;66206;0.000;0.000;2023-05-18T04:52:16;98598.53;;;21.44;21.74
77212;BME280;66206;0.000;0.000;2023-05-18T04:54:43;98599.59;;;21.46;21.77
77212;BME280;66206;0.000;0.000;2023-05-18T04:57:10;98599.49;;;21.36;21.83
77212;BME280;66206;0.000;0.000;2023-05-18T04:59:37;98599.01;;;21.46;21.88
77212;BME280;66206;0.000;0.000;2023-05-18T05:02:04;98599.25;;;21.52;21.81
77212;BME280;66206;0.000;0.000;2023-05-18T05:04:31;98600.29;;;21.43;21.92
77212;BME280;66206;0.000;0.000;2023-05-18T05:06:57;98603.48;;;21.33;21.92
77212;BME280;66206;0.000;0.000;2023-05-18T05:09:24;98607.92;;;21.46;21.85
77212;BME280;66206;0.000;0.000;2023-05-18T05:11:51;98608.18;;;21.28;21.88
77212;BME280;66206;0.000;0.000;2023-05-18T05:14:18;98607.64;;;21.41;21.89
77212;BME280;66206;0.000;0.000;2023-05-18T05:16:44;98609.51;;;21.19;21.94
77212;BME280;66206;0.000;0.000;2023-05-18T05:19:11;98610.14;;;21.50;21.85
77212;BME280;66206;0.000;0.000;2023-05-18T05:21:38;98608.69;;;21.24;22.00
77212;BME280;66206;0.000;0.000;2023-05-18T05:24:05;98610.31;;;21.30;21.93
77212;BME280;66206;0.000;0.000;2023-05-18T05:26:31;98608.57;;;21.60;21.89
77212;BME280;66206;0.000;0.000;2023-05-18T05:28:58;98610.35;;;21.49;21.95
77212;BME280;66206;0.000;0.000;2023-05-18T05:31:25;98609.28;;;21.29;22.01
77212;BME280;66206;0.000;0.000;2023-05-18T05:33:52;98611.42;;;21.32;21.99
77212;BME280;66206;0.000;0.000;2023-05-18T05:36:18;98611.25;;;21.29;22.02
77212;BME280;66206;0.000;0.000;2023-05-18T05:38:45;98611.63;;;21.28;22.13
77212;BME280;66206;0.000;0.000;2023-05-18T05:41:12;98612.71;;;21.31;22.04
77212;BME280;66206;0.000;0.000;2023-05-18T05:43:39;98612.02;;;21.36;22.03
77212;BME280;66206;0.000;0.000;2023-05-18T05:46:06;98613.97;;;21.40;22.10
77212;BME280;66206;0.000;0.000;2023-05-18T05:48:32;98611.87;;;21.41;22.04
77212;BME280;66206;0.000;0.000;2023-05-18T05:50:59;98615.06;;;21.40;22.00
77212;BME280;66206;0.000;0.000;2023-05-18T05:53:26;98613.74;;;21.31;22.09
77212;BME280;66206;0.000;0.000;2023-05-18T05:55:53;98613.85;;;21.36;22.18
77212;BME280;66206;0.000;0.000;2023-05-18T05:58:19;98612.72;;;21.32;22.16
77212;BME280;66206;0.000;0.000;2023-05-18T06:00:46;98611.36;;;21.31;22.37
77212;BME280;66206;0.000;0.000;2023-05-18T06:03:13;98609.02;;;21.26;22.41
77212;BME280;66206;0.000;0.000;2023-05-18T06:05:40;98605.04;;;21.34;22.44
77212;BME280;66206;0.000;0.000;2023-05-18T06:08:07;98608.85;;;21.39;22.39
77212;BME280;66206;0.000;0.000;2023-05-18T06:10:33;98611.54;;;21.50;22.34
77212;BME280;66206;0.000;0.000;2023-05-18T06:13:00;98610.46;;;21.54;22.27
77212;BME280;66206;0.000;0.000;2023-05-18T06:15:27;98612.39;;;21.46;22.42
77212;BME280;66206;0.000;0.000;2023-05-18T06:17:54;98614.18;;;21.46;22.38
77212;BME280;66206;0.000;0.000;2023-05-18T06:20:21;98612.51;;;21.37;22.45
77212;BME280;66206;0.000;0.000;2023-05-18T06:22:47;98615.62;;;21.51;22.40
77212;BME280;66206;0.000;0.000;2023-05-18T06:25:14;98613.50;;;21.51;22.35
77212;BME280;66206;0.000;0.000;2023-05-18T06:27:41;98613.35;;;21.56;22.44
77212;BME280;66206;0.000;0.000;2023-05-18T06:30:08;98614.15;;;21.34;22.43
77212;BME280;66206;0.000;0.000;2023-05-18T06:32:35;98614.43;;;21.39;22.46
77212;BME280;66206;0.000;0.000;2023-05-18T06:35:02;98613.48;;;21.41;22.54
77212;BME280;66206;0.000;0.000;2023-05-18T06:37:29;98612.74;;;21.53;22.51
77212;BME280;66206;0.000;0.000;2023-05-18T06:39:56;98612.62;;;21.16;22.61
77212;BME280;66206;0.000;0.000;2023-05-18T06:42:23;98616.00;;;21.52;22.59
77212;BME280;66206;0.000;0.000;2023-05-18T06:44:50;98614.97;;;21.24;22.61
77212;BME280;66206;0.000;0.000;2023-05-18T06:47:17;98612.59;;;21.48;22.54
77212;BME280;66206;0.000;0.000;2023-05-18T06:49:43;98615.20;;;21.48;22.57
77212;BME280;66206;0.000;0.000;2023-05-18T06:52:10;98615.59;;;21.68;22.58
77212;BME280;66206;0.000;0.000;2023-05-18T06:54:37;98616.35;;;21.44;22.64
77212;BME280;66206;0.000;0.000;2023-05-18T06:57:04;98620.27;;;21.17;22.72
77212;BME280;66206;0.000;0.000;2023-05-18T06:59:31;98620.97;;;21.53;22.66
77212;BME280;66206;0.000;0.000;2023-05-18T07:01:57;98619.00;;;21.56;22.68
77212;BME280;66206;0.000;0.000;2023-05-18T07:04:24;98619.24;;;21.72;22.59
77212;BME280;66206;0.000;0.000;2023-05-18T07:06:51;98621.20;;;21.62;22.68
77212;BME280;66206;0.000;0.000;2023-05-18T07:09:17;98619.90;;;21.65;22.67
77212;BME280;66206;0.000;0.000;2023-05-18T07:11:44;98621.75;;;21.75;22.68
77212;BME280;66206;0.000;0.000;2023-05-18T07:14:11;98621.53;;;21.53;22.74
77212;BME280;66206;0.000;0.000;2023-05-18T07:16:38;98620.00;;;21.60;22.75
77212;BME280;66206;0.000;0.000;2023-05-18T07:19:04;98621.76;;;21.84;22.71
77212;BME280;66206;0.000;0.000;2023-05-18T07:21:31;98621.94;;;21.78;22.72
77212;BME280;66206;0.000;0.000;2023-05-18T07:23:58;98622.22;;;21.85;22.70
77212;BME280;66206;0.000;0.000;2023-05-18T07:26:25;98618.09;;;21.82;22.71
77212;BME280;66206;0.000;0.000;2023-05-18T07:28:51;98619.21;;;21.96;22.66
77212;BME280;66206;0.000;0.000;2023-05-18T07:31:18;98614.48;;;21.79;22.71
77212;BME280;66206;0.000;0.000;2023-05-18T07:33:45;98616.37;;;21.89;22.75
77212;BME280;66206;0.000;0.000;2023-05-18T07:36:12;98614.31;;;21.72;22.76
77212;BME280;66206;0.000;0.000;2023-05-18T07:38:38;98610.78;;;21.73;22.83
77212;BME280;66206;0.000;0.000;2023-05-18T07:41:05;98612.94;;;21.86;22.76
77212;BME280;66206;0.000;0.000;2023-05-18T07:43:32;98611.40;;;21.88;22.76
77212;BME280;66206;0.000;0.000;2023-05-18T07:45:59;98610.87;;;21.83;22.81
77212;BME280;66206;0.000;0.000;2023-05-18T07:48:25;98606.77;;;21.94;22.87
77212;BME280;66206;0.000;0.000;2023-05-18T07:50:52;98605.07;;;21.77;22.99
77212;BME280;66206;0.000;0.000;2023-05-18T07:53:19;98604.02;;;21.98;22.97
77212;BME280;66206;0.000;0.000;2023-05-18T07:55:46;98601.79;;;22.00;23.83
77212;BME280;66206;0.000;0.000;2023-05-18T07:58:12;98596.64;;;22.08;24.40
77212;BME280;66206;0.000;0.000;2023-05-18T08:00:39;98601.62;;;22.15;24.75
77212;BME280;66206;0.000;0.000;2023-05-18T08:03:06;98605.72;;;22.15;24.94
77212;BME280;66206;0.000;0.000;2023-05-18T08:05:33;98612.34;;;22.06;25.29
77212;BME280;66206;0.000;0.000;2023-05-18T08:07:59;98605.90;;;22.13;25.29
77212;BME280;66206;0.000;0.000;2023-05-18T08:10:26;98608.14;;;22.11;25.29
77212;BME280;66206;0.000;0.000;2023-05-18T08:12:53;98606.87;;;22.14;25.19
77212;BME280;66206;0.000;0.000;2023-05-18T08:15:20;98604.12;;;22.24;25.36
77212;BME280;66206;0.000;0.000;2023-05-18T08:17:46;98601.86;;;22.17;25.24
77212;BME280;66206;0.000;0.000;2023-05-18T08:20:13;98601.27;;;22.11;25.41
77212;BME280;66206;0.000;0.000;2023-05-18T08:22:40;98605.09;;;21.42;26.01
77212;BME280;66206;0.000;0.000;2023-05-18T08:25:07;98602.00;;;21.72;25.86
77212;BME280;66206;0.000;0.000;2023-05-18T08:27:34;98603.10;;;21.99;25.87
77212;BME280;66206;0.000;0.000;2023-05-18T08:30:01;98603.06;;;22.35;25.64
77212;BME280;66206;0.000;0.000;2023-05-18T08:32:28;98602.50;;;22.51;25.35
77212;BME280;66206;0.000;0.000;2023-05-18T08:34:54;98606.01;;;22.56;25.44
77212;BME280;66206;0.000;0.000;2023-05-18T08:37:21;98596.93;;;22.59;25.43
77212;BME280;66206;0.000;0.000;2023-05-18T08:39:48;98603.61;;;22.65;25.28
77212;BME280;66206;0.000;0.000;2023-05-18T08:42:16;98596.43;;;22.59;25.51
77212;BME280;66206;0.000;0.000;2023-05-18T08:44:45;98599.58;;;22.97;25.33
77212;BME280;66206;0.000;0.000;2023-05-18T08:47:10;98593.89;;;22.64;25.62
77212;BME280;66206;0.000;0.000;2023-05-18T08:49:38;98587.84;;;22.67;25.77
77212;BME280;66206;0.000;0.000;2023-05-18T08:52:06;98593.96;;;22.71;25.70
77212;BME280;66206;0.000;0.000;2023-05-18T08:54:34;98592.03;;;22.98;25.70
77212;BME280;66206;0.000;0.000;2023-05-18T08:57:02;98589.83;;;23.16;25.27
77212;BME280;66206;0.000;0.000;2023-05-18T08:59:30;98589.92;;;23.28;24.91
77212;BME280;66206;0.000;0.000;2023-05-18T09:01:57;98591.12;;;23.29;24.78
77212;BME280;66206;0.000;0.000;2023-05-18T09:04:23;98587.86;;;23.43;24.40
77212;BME280;66206;0.000;0.000;2023-05-18T09:06:52;98589.34;;;23.45;24.20
77212;BME280;66206;0.000;0.000;2023-05-18T09:09:19;98590.04;;;23.79;24.13
77212;BME280;66206;0.000;0.000;2023-05-18T09:11:47;98590.40;;;23.53;24.53
77212;BME280;66206;0.000;0.000;2023-05-18T09:14:15;98588.47;;;23.60;24.40
77212;BME280;66206;0.000;0.000;2023-05-18T09:16:42;98587.56;;;23.59;24.50
77212;BME280;66206;0.000;0.000;2023-05-18T09:19:08;98588.56;;;23.77;24.25
77212;BME280;66206;0.000;0.000;2023-05-18T09:21:35;98587.14;;;23.53;24.68
77212;BME280;66206;0.000;0.000;2023-05-18T09:24:02;98589.73;;;22.91;25.02
77212;BME280;66206;0.000;0.000;2023-05-18T09:26:29;98582.48;;;23.12;25.16
77212;BME280;66206;0.000;0.000;2023-05-18T09:28:56;98583.23;;;22.97;25.47
77212;BME280;66206;0.000;0.000;2023-05-18T09:31:22;98584.38;;;23.09;25.53
77212;BME280;66206;0.000;0.000;2023-05-18T09:33:49;98579.43;;;22.96;25.62
77212;BME280;66206;0.000;0.000;2023-05-18T09:36:16;98571.58;;;23.17;25.41
77212;BME280;66206;0.000;0.000;2023-05-18T09:38:43;98577.00;;;23.27;25.43
77212;BME280;66206;0.000;0.000;2023-05-18T09:41:12;98576.96;;;23.00;25.53
77212;BME280;66206;0.000;0.000;2023-05-18T09:43:39;98577.60;;;22.83;25.81
77212;BME280;66206;0.000;0.000;2023-05-18T09:46:06;98572.35;;;23.19;25.52
77212;BME280;66206;0.000;0.000;2023-05-18T09:48:34;98576.98;;;22.79;25.81
77212;BME280;66206;0.000;0.000;2023-05-18T09:51:01;98571.89;;;23.00;25.70
77212;BME280;66206;0.000;0.000;2023-05-18T09:53:28;98572.51;;;23.03;25.69
77212;BME280;66206;0.000;0.000;2023-05-18T09:55:55;98564.59;;;22.74;25.82
77212;BME280;66206;0.000;0.000;2023-05-18T09:58:24;98564.46;;;23.21;25.37
77212;BME280;66206;0.000;0.000;2023-05-18T10:00:50;98566.51;;;23.30;25.62
77212;BME280;66206;0.000;0.000;2023-05-18T10:03:18;98566.71;;;23.28;25.34
77212;BME280;66206;0.000;0.000;2023-05-18T10:05:45;98566.66;;;23.20;25.65
77212;BME280;66206;0.000;0.000;2023-05-18T10:08:12;98561.36;;;23.17;25.51
77212;BME280;66206;0.000;0.000;2023-05-18T10:10:40;98558.31;;;23.26;25.22
77212;BME280;66206;0.000;0.000;2023-05-18T10:13:08;98562.20;;;23.40;25.02
77212;BME280;66206;0.000;0.000;2023-05-18T10:15:34;98559.33;;;23.30;25.31
77212;BME280;66206;0.000;0.000;2023-05-18T10:18:01;98562.33;;;23.44;25.42
77212;BME280;66206;0.000;0.000;2023-05-18T10:20:28;98553.13;;;23.19;25.21
77212;BME280;66206;0.000;0.000;2023-05-18T10:22:55;98553.68;;;23.13;25.50
77212;BME280;66206;0.000;0.000;2023-05-18T10:25:24;98552.85;;;23.25;25.45
77212;BME280;66206;0.000;0.000;2023-05-18T10:27:53;98548.59;;;23.18;25.38
77212;BME280;66206;0.000;0.000;2023-05-18T10:30:21;98549.49;;;23.32;25.43
77212;BME280;66206;0.000;0.000;2023-05-18T10:32:48;98543.46;;;23.29;25.27
77212;BME280;66206;0.000;0.000;2023-05-18T10:35:15;98544.06;;;23.22;25.34
77212;BME280;66206;0.000;0.000;2023-05-18T10:37:43;98545.27;;;23.20;25.40
77212;BME280;66206;0.000;0.000;2023-05-18T10:37:44;98545.88;;;23.15;25.43
77212;BME280;66206;0.000;0.000;2023-05-18T10:40:11;98539.73;;;23.32;25.33
77212;BME280;66206;0.000;0.000;2023-05-18T10:42:39;98538.34;;;23.26;25.43
77212;BME280;66206;0.000;0.000;2023-05-18T10:45:07;98532.41;;;23.18;25.53
77212;BME280;66206;0.000;0.000;2023-05-18T10:47:35;98533.04;;;23.09;25.50
77212;BME280;66206;0.000;0.000;2023-05-18T10:50:02;98532.29;;;23.32;25.24
77212;BME280;66206;0.000;0.000;2023-05-18T10:52:29;98532.06;;;23.19;25.77
77212;BME280;66206;0.000;0.000;2023-05-18T10:54:57;98531.74;;;23.10;25.72
77212;BME280;66206;0.000;0.000;2023-05-18T10:57:24;98531.06;;;23.27;25.24
77212;BME280;66206;0.000;0.000;2023-05-18T10:59:52;98525.59;;;23.02;25.29
77212;BME280;66206;0.000;0.000;2023-05-18T11:02:18;98519.48;;;23.37;23.60
77212;BME280;66206;0.000;0.000;2023-05-18T11:04:46;98524.43;;;23.46;22.34
77212;BME280;66206;0.000;0.000;2023-05-18T11:07:13;98522.29;;;23.45;22.25
77212;BME280;66206;0.000;0.000;2023-05-18T11:09:41;98522.53;;;23.34;22.11
77212;BME280;66206;0.000;0.000;2023-05-18T11:12:10;98527.50;;;23.41;22.46
77212;BME280;66206;0.000;0.000;2023-05-18T11:14:45;98519.95;;;23.11;22.40
77212;BME280;66206;0.000;0.000;2023-05-18T11:17:16;98513.62;;;23.25;22.31
77212;BME280;66206;0.000;0.000;2023-05-18T11:19:32;98515.29;;;23.38;22.00
77212;BME280;66206;0.000;0.000;2023-05-18T11:22:09;98507.72;;;23.37;21.49
77212;BME280;66206;0.000;0.000;2023-05-18T11:24:28;98507.26;;;23.43;21.43
77212;BME280;66206;0.000;0.000;2023-05-18T11:26:56;98509.50;;;23.21;21.46
77212;BME280;66206;0.000;0.000;2023-05-18T11:29:24;98514.98;;;23.41;21.56
77212;BME280;66206;0.000;0.000;2023-05-18T11:31:51;98511.25;;;23.50;21.58
77212;BME280;66206;0.000;0.000;2023-05-18T11:34:34;98519.76;;;23.18;21.81
77212;BME280;66206;0.000;0.000;2023-05-18T11:36:45;98512.29;;;23.42;21.81
77212;BME280;66206;0.000;0.000;2023-05-18T11:39:12;98512.35;;;23.35;21.38
77212;BME280;66206;0.000;0.000;2023-05-18T11:41:38;98509.20;;;23.03;21.88
77212;BME280;66206;0.000;0.000;2023-05-18T11:44:13;98511.63;;;23.01;21.95
77212;BME280;66206;0.000;0.000;2023-05-18T11:46:35;98510.53;;;22.98;21.89
77212;BME280;66206;0.000;0.000;2023-05-18T11:49:02;98501.24;;;23.02;22.51
77212;BME280;66206;0.000;0.000;2023-05-18T11:51:29;98503.70;;;22.67;22.67
77212;BME280;66206;0.000;0.000;2023-05-18T11:53:56;98509.17;;;22.81;22.84
77212;BME280;66206;0.000;0.000;2023-05-18T11:56:23;98508.57;;;22.71;23.09
77212;BME280;66206;0.000;0.000;2023-05-18T11:59:09;98508.14;;;22.68;23.09
77212;BME280;66206;0.000;0.000;2023-05-18T12:01:15;98507.27;;;22.51;22.89
77212;BME280;66206;0.000;0.000;2023-05-18T12:03:42;98499.12;;;22.48;22.67
77212;BME280;66206;0.000;0.000;2023-05-18T12:06:09;98503.46;;;22.41;22.85
77212;BME280;66206;0.000;0.000;2023-05-18T12:08:36;98501.45;;;22.54;22.88
77212;BME280;66206;0.000;0.000;2023-05-18T12:11:03;98492.51;;;22.47;23.05
77212;BME280;66206;0.000;0.000;2023-05-18T12:13:30;98497.96;;;22.42;22.89
77212;BME280;66206;0.000;0.000;2023-05-18T12:15:57;98496.83;;;22.43;23.05
77212;BME280;66206;0.000;0.000;2023-05-18T12:18:26;98495.70;;;22.37;23.06
77212;BME280;66206;0.000;0.000;2023-05-18T12:20:53;98496.37;;;22.44;23.05
77212;BME280;66206;0.000;0.000;2023-05-18T12:23:20;98490.41;;;22.21;23.23
77212;BME280;66206;0.000;0.000;2023-05-18T12:25:47;98486.54;;;22.31;23.28
77212;BME280;66206;0.000;0.000;2023-05-18T12:28:14;98482.80;;;22.31;23.24
77212;BME280;66206;0.000;0.000;2023-05-18T12:30:40;98481.38;;;22.49;23.19
77212;BME280;66206;0.000;0.000;2023-05-18T12:33:07;98482.63;;;22.26;23.40
77212;BME280;66206;0.000;0.000;2023-05-18T12:35:37;98485.40;;;22.12;23.50
77212;BME280;66206;0.000;0.000;2023-05-18T12:38:05;98484.39;;;22.31;23.46
77212;BME280;66206;0.000;0.000;2023-05-18T12:40:33;98485.26;;;22.20;23.56
77212;BME280;66206;0.000;0.000;2023-05-18T12:43:00;98488.94;;;22.11;23.64
77212;BME280;66206;0.000;0.000;2023-05-18T12:45:28;98484.73;;;22.20;23.67
77212;BME280;66206;0.000;0.000;2023-05-18T12:47:55;98475.20;;;22.20;23.71
77212;BME280;66206;0.000;0.000;2023-05-18T12:50:24;98479.72;;;22.24;23.75
77212;BME280;66206;0.000;0.000;2023-05-18T12:52:50;98477.49;;;22.03;23.75
77212;BME280;66206;0.000;0.000;2023-05-18T12:55:17;98474.44;;;22.06;23.86
77212;BME280;66206;0.000;0.000;2023-05-18T12:57:44;98476.00;;;22.03;23.83
77212;BME280;66206;0.000;0.000;2023-05-18T13:00:12;98478.04;;;22.11;23.90
77212;BME280;66206;0.000;0.000;2023-05-18T13:02:38;98479.46;;;21.97;23.95
77212;BME280;66206;0.000;0.000;2023-05-18T13:05:06;98478.40;;;22.09;23.90